sensor_id;sensor_type;location;lat;lon;timestamp;temperature;humidity
52731;DHT22;38624;53.242;6.974;2023-07-13T00:00:26;16.10;99.90
52731;DHT22;38624;53.242;6.974;2023-07-13T00:02:52;16.00;99.90
52731;DHT22;38624;53.242;6.974;2023-07-13T00:05:22;16.00;99.90
52731;DHT22;38624;53.242;6.974;2023-07-13T00:07:52;15.90;99.90
52731;DHT22;38624;53.242;6.974;2023-07-13T00:10:18;15.90;99.90
52731;DHT22;38624;53.242;6.974;2023-07-13T00:12:44;15.80;99.90
52731;DHT22;38624;53.242;6.974;2023-07-13T00:15:15;15.70;99.90
52731;DHT22;38624;53.242;6.974;2023-07-13T00:17:42;15.60;99.90
52731;DHT22;38624;53.242;6.974;2023-07-13T00:20:10;15.50;99.90
52731;DHT22;38624;53.242;6.974;2023-07-13T00:22:36;15.40;99.90
52731;DHT22;38624;53.242;6.974;2023-07-13T00:25:02;15.30;99.90
52731;DHT22;38624;53.242;6.974;2023-07-13T00:27:28;15.20;99.90
52731;DHT22;38624;53.242;6.974;2023-07-13T00:29:57;15.20;99.90
52731;DHT22;38624;53.242;6.974;2023-07-13T00:32:23;15.10;99.90
52731;DHT22;38624;53.242;6.974;2023-07-13T00:34:51;15.00;99.90
52731;DHT22;38624;53.242;6.974;2023-07-13T00:37:17;15.10;99.90
52731;DHT22;38624;53.242;6.974;2023-07-13T00:39:43;15.00;99.90
52731;DHT22;38624;53.242;6.974;2023-07-13T00:42:09;15.00;99.90
52731;DHT22;38624;53.242;6.974;2023-07-13T00:44:34;15.10;99.90
52731;DHT22;38624;53.242;6.974;2023-07-13T00:47:00;15.10;99.90
52731;DHT22;38624;53.242;6.974;2023-07-13T00:49:28;15.10;99.90
52731;DHT22;38624;53.242;6.974;2023-07-13T00:52:06;15.20;99.90
52731;DHT22;38624;53.242;6.974;2023-07-13T00:54:38;15.30;99.90
52731;DHT22;38624;53.242;6.974;2023-07-13T00:57:09;15.40;99.90
52731;DHT22;38624;53.242;6.974;2023-07-13T00:59:36;15.60;99.90
52731;DHT22;38624;53.242;6.974;2023-07-13T01:02:04;15.80;99.90
52731;DHT22;38624;53.242;6.974;2023-07-13T01:04:30;15.90;99.90
52731;DHT22;38624;53.242;6.974;2023-07-13T01:06:57;16.00;99.90
52731;DHT22;38624;53.242;6.974;2023-07-13T01:09:23;16.20;99.90
52731;DHT22;38624;53.242;6.974;2023-07-13T01:11:49;16.20;99.90
52731;DHT22;38624;53.242;6.974;2023-07-13T01:14:15;16.20;99.90
52731;DHT22;38624;53.242;6.974;2023-07-13T01:16:43;16.20;99.90
52731;DHT22;38624;53.242;6.974;2023-07-13T01:19:33;16.20;99.90
52731;DHT22;38624;53.242;6.974;2023-07-13T01:22:06;16.20;99.90
52731;DHT22;38624;53.242;6.974;2023-07-13T01:24:38;16.30;99.90
52731;DHT22;38624;53.242;6.974;2023-07-13T01:27:06;16.40;99.90
52731;DHT22;38624;53.242;6.974;2023-07-13T01:29:33;16.50;99.90
52731;DHT22;38624;53.242;6.974;2023-07-13T01:32:00;16.50;99.90
52731;DHT22;38624;53.242;6.974;2023-07-13T01:34:27;16.60;99.90
52731;DHT22;38624;53.242;6.974;2023-07-13T01:36:53;16.60;99.90
52731;DHT22;38624;53.242;6.974;2023-07-13T01:39:22;16.50;99.90
52731;DHT22;38624;53.242;6.974;2023-07-13T01:41:48;16.50;99.90
52731;DHT22;38624;53.242;6.974;2023-07-13T01:44:15;16.40;99.90
52731;DHT22;38624;53.242;6.974;2023-07-13T01:46:40;16.40;99.90
52731;DHT22;38624;53.242;6.974;2023-07-13T01:49:06;16.30;99.90
52731;DHT22;38624;53.242;6.974;2023-07-13T01:51:32;16.30;99.90
52731;DHT22;38624;53.242;6.974;2023-07-13T01:53:57;16.30;99.90
52731;DHT22;38624;53.242;6.974;2023-07-13T01:56:23;16.30;99.90
52731;DHT22;38624;53.242;6.974;2023-07-13T01:58:49;16.30;99.90
52731;DHT22;38624;53.242;6.974;2023-07-13T02:01:14;16.30;99.90
52731;DHT22;38624;53.242;6.974;2023-07-13T02:03:40;16.40;99.90
52731;DHT22;38624;53.242;6.974;2023-07-13T02:06:06;16.40;99.90
52731;DHT22;38624;53.242;6.974;2023-07-13T02:08:32;16.40;99.90
52731;DHT22;38624;53.242;6.974;2023-07-13T02:10:59;16.50;99.90
52731;DHT22;38624;53.242;6.974;2023-07-13T02:13:24;16.50;99.90
52731;DHT22;38624;53.242;6.974;2023-07-13T02:15:53;16.60;99.90
52731;DHT22;38624;53.242;6.974;2023-07-13T02:18:19;16.70;99.90
52731;DHT22;38624;53.242;6.974;2023-07-13T02:20:45;16.70;99.90
52731;DHT22;38624;53.242;6.974;2023-07-13T02:23:11;16.70;99.90
52731;DHT22;38624;53.242;6.974;2023-07-13T02:25:37;16.70;99.90
52731;DHT22;38624;53.242;6.974;2023-07-13T02:28:03;16.70;99.90
52731;DHT22;38624;53.242;6.974;2023-07-13T02:30:29;16.60;99.90
52731;DHT22;38624;53.242;6.974;2023-07-13T02:32:56;16.60;99.90
52731;DHT22;38624;53.242;6.974;2023-07-13T02:35:22;16.50;99.90
52731;DHT22;38624;53.242;6.974;2023-07-13T02:37:48;16.50;99.90
52731;DHT22;38624;53.242;6.974;2023-07-13T02:40:13;16.50;99.90
52731;DHT22;38624;53.242;6.974;2023-07-13T02:42:39;16.50;99.90
52731;DHT22;38624;53.242;6.974;2023-07-13T02:45:07;16.50;99.90
52731;DHT22;38624;53.242;6.974;2023-07-13T02:47:33;16.50;99.90
52731;DHT22;38624;53.242;6.974;2023-07-13T02:49:58;16.40;99.90
52731;DHT22;38624;53.242;6.974;2023-07-13T02:52:25;16.40;99.90
52731;DHT22;38624;53.242;6.974;2023-07-13T02:54:51;16.40;99.90
52731;DHT22;38624;53.242;6.974;2023-07-13T02:57:16;16.40;99.90
52731;DHT22;38624;53.242;6.974;2023-07-13T02:59:42;16.30;99.90
52731;DHT22;38624;53.242;6.974;2023-07-13T03:02:08;16.30;99.90
52731;DHT22;38624;53.242;6.974;2023-07-13T03:04:36;16.30;99.90
52731;DHT22;38624;53.242;6.974;2023-07-13T03:07:03;16.20;99.90
52731;DHT22;38624;53.242;6.974;2023-07-13T03:09:29;16.20;99.90
52731;DHT22;38624;53.242;6.974;2023-07-13T03:11:55;16.20;99.90
52731;DHT22;38624;53.242;6.974;2023-07-13T03:14:25;16.10;99.90
52731;DHT22;38624;53.242;6.974;2023-07-13T03:16:50;16.00;99.90
52731;DHT22;38624;53.242;6.974;2023-07-13T03:19:17;16.00;99.90
52731;DHT22;38624;53.242;6.974;2023-07-13T03:21:43;16.00;99.90
52731;DHT22;38624;53.242;6.974;2023-07-13T03:24:09;16.00;99.90
52731;DHT22;38624;53.242;6.974;2023-07-13T03:26:35;15.90;99.90
52731;DHT22;38624;53.242;6.974;2023-07-13T03:29:01;15.90;99.90
52731;DHT22;38624;53.242;6.974;2023-07-13T03:31:28;15.90;99.90
52731;DHT22;38624;53.242;6.974;2023-07-13T03:33:55;15.80;99.90
52731;DHT22;38624;53.242;6.974;2023-07-13T03:36:24;15.80;99.90
52731;DHT22;38624;53.242;6.974;2023-07-13T03:38:52;15.70;99.90
52731;DHT22;38624;53.242;6.974;2023-07-13T03:41:20;15.60;99.90
52731;DHT22;38624;53.242;6.974;2023-07-13T03:43:45;15.60;99.90
52731;DHT22;38624;53.242;6.974;2023-07-13T03:46:13;15.60;99.90
52731;DHT22;38624;53.242;6.974;2023-07-13T03:48:40;15.60;99.90
52731;DHT22;38624;53.242;6.974;2023-07-13T03:51:08;15.50;99.90
52731;DHT22;38624;53.242;6.974;2023-07-13T03:53:38;15.50;99.90
52731;DHT22;38624;53.242;6.974;2023-07-13T03:56:04;15.40;99.90
52731;DHT22;38624;53.242;6.974;2023-07-13T03:58:40;15.40;99.90
52731;DHT22;38624;53.242;6.974;2023-07-13T04:01:08;15.40;99.90
52731;DHT22;38624;53.242;6.974;2023-07-13T04:03:35;15.30;99.90
52731;DHT22;38624;53.242;6.974;2023-07-13T04:06:03;15.40;99.90
52731;DHT22;38624;53.242;6.974;2023-07-13T04:08:35;15.40;99.90
52731;DHT22;38624;53.242;6.974;2023-07-13T04:11:01;15.60;99.90
52731;DHT22;38624;53.242;6.974;2023-07-13T04:13:28;15.70;99.90
52731;DHT22;38624;53.242;6.974;2023-07-13T04:15:54;15.80;99.90
52731;DHT22;38624;53.242;6.974;2023-07-13T04:18:20;15.90;99.90
52731;DHT22;38624;53.242;6.974;2023-07-13T04:20:47;16.00;99.90
52731;DHT22;38624;53.242;6.974;2023-07-13T04:23:13;16.10;99.90
52731;DHT22;38624;53.242;6.974;2023-07-13T04:25:39;16.10;99.90
52731;DHT22;38624;53.242;6.974;2023-07-13T04:28:06;16.20;99.90
52731;DHT22;38624;53.242;6.974;2023-07-13T04:30:32;16.20;99.90
52731;DHT22;38624;53.242;6.974;2023-07-13T04:32:58;16.30;99.90
52731;DHT22;38624;53.242;6.974;2023-07-13T04:35:23;16.30;99.90
52731;DHT22;38624;53.242;6.974;2023-07-13T04:37:50;16.20;99.90
52731;DHT22;38624;53.242;6.974;2023-07-13T04:40:19;16.10;99.90
52731;DHT22;38624;53.242;6.974;2023-07-13T04:42:46;16.10;99.90
52731;DHT22;38624;53.242;6.974;2023-07-13T04:45:14;16.20;99.90
52731;DHT22;38624;53.242;6.974;2023-07-13T04:47:40;16.20;99.90
52731;DHT22;38624;53.242;6.974;2023-07-13T04:50:07;16.20;99.90
52731;DHT22;38624;53.242;6.974;2023-07-13T04:52:33;16.20;99.90
52731;DHT22;38624;53.242;6.974;2023-07-13T04:54:59;16.10;99.90
52731;DHT22;38624;53.242;6.974;2023-07-13T04:57:26;16.10;99.90
52731;DHT22;38624;53.242;6.974;2023-07-13T04:59:52;16.10;99.90
52731;DHT22;38624;53.242;6.974;2023-07-13T05:02:18;16.10;99.90
52731;DHT22;38624;53.242;6.974;2023-07-13T05:04:49;16.20;99.90
52731;DHT22;38624;53.242;6.974;2023-07-13T05:07:15;16.10;99.90
52731;DHT22;38624;53.242;6.974;2023-07-13T05:09:41;16.20;99.90
52731;DHT22;38624;53.242;6.974;2023-07-13T05:12:08;16.30;99.90
52731;DHT22;38624;53.242;6.974;2023-07-13T05:14:33;16.30;99.90
52731;DHT22;38624;53.242;6.974;2023-07-13T05:16:59;16.50;99.90
52731;DHT22;38624;53.242;6.974;2023-07-13T05:19:25;16.70;99.90
52731;DHT22;38624;53.242;6.974;2023-07-13T05:21:51;16.90;99.90
52731;DHT22;38624;53.242;6.974;2023-07-13T05:24:17;17.00;99.90
52731;DHT22;38624;53.242;6.974;2023-07-13T05:26:42;17.00;99.90
52731;DHT22;38624;53.242;6.974;2023-07-13T05:29:08;17.10;99.90
52731;DHT22;38624;53.242;6.974;2023-07-13T05:31:34;17.10;99.90
52731;DHT22;38624;53.242;6.974;2023-07-13T05:33:59;17.10;99.90
52731;DHT22;38624;53.242;6.974;2023-07-13T05:36:25;17.00;99.90
52731;DHT22;38624;53.242;6.974;2023-07-13T05:38:51;17.00;99.90
52731;DHT22;38624;53.242;6.974;2023-07-13T05:41:16;17.00;99.90
52731;DHT22;38624;53.242;6.974;2023-07-13T05:43:42;17.10;99.90
52731;DHT22;38624;53.242;6.974;2023-07-13T05:46:08;17.10;99.90
52731;DHT22;38624;53.242;6.974;2023-07-13T05:48:33;17.20;99.90
52731;DHT22;38624;53.242;6.974;2023-07-13T05:51:00;17.20;99.90
52731;DHT22;38624;53.242;6.974;2023-07-13T05:53:26;17.30;99.90
52731;DHT22;38624;53.242;6.974;2023-07-13T05:55:54;17.30;99.90
52731;DHT22;38624;53.242;6.974;2023-07-13T05:58:20;17.40;99.90
52731;DHT22;38624;53.242;6.974;2023-07-13T06:00:57;17.40;99.90
52731;DHT22;38624;53.242;6.974;2023-07-13T06:03:23;17.40;99.90
52731;DHT22;38624;53.242;6.974;2023-07-13T06:05:49;17.30;99.90
52731;DHT22;38624;53.242;6.974;2023-07-13T06:08:15;17.30;99.90
52731;DHT22;38624;53.242;6.974;2023-07-13T06:10:40;17.40;99.90
52731;DHT22;38624;53.242;6.974;2023-07-13T06:13:06;17.40;99.90
52731;DHT22;38624;53.242;6.974;2023-07-13T06:15:32;17.50;99.90
52731;DHT22;38624;53.242;6.974;2023-07-13T06:17:58;17.60;99.90
52731;DHT22;38624;53.242;6.974;2023-07-13T06:20:23;17.70;99.90
52731;DHT22;38624;53.242;6.974;2023-07-13T06:22:49;17.70;99.90
52731;DHT22;38624;53.242;6.974;2023-07-13T06:25:15;17.70;99.90
52731;DHT22;38624;53.242;6.974;2023-07-13T06:27:40;17.70;99.90
52731;DHT22;38624;53.242;6.974;2023-07-13T06:30:06;17.80;99.90
52731;DHT22;38624;53.242;6.974;2023-07-13T06:32:32;17.80;99.90
52731;DHT22;38624;53.242;6.974;2023-07-13T06:34:58;17.90;99.90
52731;DHT22;38624;53.242;6.974;2023-07-13T06:37:24;18.00;99.90
52731;DHT22;38624;53.242;6.974;2023-07-13T06:39:49;18.10;99.90
52731;DHT22;38624;53.242;6.974;2023-07-13T06:42:16;18.20;99.90
52731;DHT22;38624;53.242;6.974;2023-07-13T06:44:42;18.20;99.90
52731;DHT22;38624;53.242;6.974;2023-07-13T06:47:07;18.30;99.90
52731;DHT22;38624;53.242;6.974;2023-07-13T06:49:33;18.30;99.90
52731;DHT22;38624;53.242;6.974;2023-07-13T06:51:59;18.30;99.90
52731;DHT22;38624;53.242;6.974;2023-07-13T06:54:24;18.50;99.90
52731;DHT22;38624;53.242;6.974;2023-07-13T06:56:50;18.50;99.90
52731;DHT22;38624;53.242;6.974;2023-07-13T06:59:17;18.50;99.90
52731;DHT22;38624;53.242;6.974;2023-07-13T07:01:42;18.60;99.90
52731;DHT22;38624;53.242;6.974;2023-07-13T07:04:08;18.10;99.90
52731;DHT22;38624;53.242;6.974;2023-07-13T07:06:34;18.80;99.90
52731;DHT22;38624;53.242;6.974;2023-07-13T07:09:00;18.90;99.90
52731;DHT22;38624;53.242;6.974;2023-07-13T07:11:26;19.10;99.90
52731;DHT22;38624;53.242;6.974;2023-07-13T07:13:52;19.20;99.90
52731;DHT22;38624;53.242;6.974;2023-07-13T07:16:18;19.10;99.90
52731;DHT22;38624;53.242;6.974;2023-07-13T07:18:45;19.20;99.90
52731;DHT22;38624;53.242;6.974;2023-07-13T07:21:11;19.00;99.90
52731;DHT22;38624;53.242;6.974;2023-07-13T07:23:37;19.10;99.90
52731;DHT22;38624;53.242;6.974;2023-07-13T07:26:02;19.40;99.90
52731;DHT22;38624;53.242;6.974;2023-07-13T07:28:28;19.60;99.90
52731;DHT22;38624;53.242;6.974;2023-07-13T07:30:56;19.60;99.90
52731;DHT22;38624;53.242;6.974;2023-07-13T07:33:22;19.80;99.90
52731;DHT22;38624;53.242;6.974;2023-07-13T07:35:48;19.70;99.90
52731;DHT22;38624;53.242;6.974;2023-07-13T07:38:14;19.70;99.90
52731;DHT22;38624;53.242;6.974;2023-07-13T07:40:41;19.60;99.90
52731;DHT22;38624;53.242;6.974;2023-07-13T07:43:08;19.90;99.90
52731;DHT22;38624;53.242;6.974;2023-07-13T07:45:34;20.20;99.90
52731;DHT22;38624;53.242;6.974;2023-07-13T07:48:00;20.30;99.90
52731;DHT22;38624;53.242;6.974;2023-07-13T07:50:27;20.50;99.90
52731;DHT22;38624;53.242;6.974;2023-07-13T07:52:53;20.20;99.90
52731;DHT22;38624;53.242;6.974;2023-07-13T07:55:21;20.30;99.90
52731;DHT22;38624;53.242;6.974;2023-07-13T07:57:47;20.30;99.90
52731;DHT22;38624;53.242;6.974;2023-07-13T08:00:13;20.30;99.90
52731;DHT22;38624;53.242;6.974;2023-07-13T08:02:39;20.10;99.90
52731;DHT22;38624;53.242;6.974;2023-07-13T08:05:07;20.00;99.90
52731;DHT22;38624;53.242;6.974;2023-07-13T08:07:32;19.80;99.90
52731;DHT22;38624;53.242;6.974;2023-07-13T08:09:58;19.70;99.90
52731;DHT22;38624;53.242;6.974;2023-07-13T08:12:24;19.70;99.90
52731;DHT22;38624;53.242;6.974;2023-07-13T08:14:50;19.80;99.90
52731;DHT22;38624;53.242;6.974;2023-07-13T08:17:22;19.90;99.90
52731;DHT22;38624;53.242;6.974;2023-07-13T08:19:48;20.20;99.90
52731;DHT22;38624;53.242;6.974;2023-07-13T08:22:14;20.10;99.90
52731;DHT22;38624;53.242;6.974;2023-07-13T08:24:40;20.30;99.90
52731;DHT22;38624;53.242;6.974;2023-07-13T08:27:08;20.40;99.90
52731;DHT22;38624;53.242;6.974;2023-07-13T08:29:34;20.60;99.90
52731;DHT22;38624;53.242;6.974;2023-07-13T08:31:59;20.80;99.90
52731;DHT22;38624;53.242;6.974;2023-07-13T08:34:25;20.50;99.90
52731;DHT22;38624;53.242;6.974;2023-07-13T08:36:51;20.70;99.90
52731;DHT22;38624;53.242;6.974;2023-07-13T08:39:17;20.80;99.90
52731;DHT22;38624;53.242;6.974;2023-07-13T08:41:46;20.90;99.90
52731;DHT22;38624;53.242;6.974;2023-07-13T08:44:22;21.20;99.90
52731;DHT22;38624;53.242;6.974;2023-07-13T08:46:49;21.30;99.90
52731;DHT22;38624;53.242;6.974;2023-07-13T08:49:19;21.10;99.90
52731;DHT22;38624;53.242;6.974;2023-07-13T08:51:59;20.70;99.90
52731;DHT22;38624;53.242;6.974;2023-07-13T08:54:36;20.80;99.90
52731;DHT22;38624;53.242;6.974;2023-07-13T08:57:11;20.70;99.20
52731;DHT22;38624;53.242;6.974;2023-07-13T08:59:38;20.60;98.40
52731;DHT22;38624;53.242;6.974;2023-07-13T09:02:25;20.70;99.30
52731;DHT22;38624;53.242;6.974;2023-07-13T09:08:31;21.50;98.30
52731;DHT22;38624;53.242;6.974;2023-07-13T09:11:16;21.90;99.30
52731;DHT22;38624;53.242;6.974;2023-07-13T09:16:23;22.10;99.90
52731;DHT22;38624;53.242;6.974;2023-07-13T09:18:52;22.70;99.90
52731;DHT22;38624;53.242;6.974;2023-07-13T09:21:31;23.00;99.90
52731;DHT22;38624;53.242;6.974;2023-07-13T09:24:24;23.30;99.90
52731;DHT22;38624;53.242;6.974;2023-07-13T09:26:47;23.60;99.90
52731;DHT22;38624;53.242;6.974;2023-07-13T09:29:17;23.60;99.90
52731;DHT22;38624;53.242;6.974;2023-07-13T09:31:49;23.80;99.90
52731;DHT22;38624;53.242;6.974;2023-07-13T09:34:16;23.60;99.90
52731;DHT22;38624;53.242;6.974;2023-07-13T09:36:42;23.30;99.90
52731;DHT22;38624;53.242;6.974;2023-07-13T09:39:29;23.30;99.90
52731;DHT22;38624;53.242;6.974;2023-07-13T09:42:15;23.50;99.90
52731;DHT22;38624;53.242;6.974;2023-07-13T09:44:58;23.60;99.90
52731;DHT22;38624;53.242;6.974;2023-07-13T09:47:30;23.60;98.90
52731;DHT22;38624;53.242;6.974;2023-07-13T09:50:00;23.40;98.50
52731;DHT22;38624;53.242;6.974;2023-07-13T09:52:27;23.10;98.50
52731;DHT22;38624;53.242;6.974;2023-07-13T09:55:11;22.80;98.90
52731;DHT22;38624;53.242;6.974;2023-07-13T09:57:48;22.70;99.90
52731;DHT22;38624;53.242;6.974;2023-07-13T10:00:22;22.60;99.90
52731;DHT22;38624;53.242;6.974;2023-07-13T10:03:02;22.60;99.90
52731;DHT22;38624;53.242;6.974;2023-07-13T10:05:41;22.80;99.90
52731;DHT22;38624;53.242;6.974;2023-07-13T10:08:34;22.70;99.90
52731;DHT22;38624;53.242;6.974;2023-07-13T10:11:09;22.60;99.90
52731;DHT22;38624;53.242;6.974;2023-07-13T10:13:56;22.60;99.90
52731;DHT22;38624;53.242;6.974;2023-07-13T10:16:24;22.60;99.90
52731;DHT22;38624;53.242;6.974;2023-07-13T10:18:55;22.70;99.90
52731;DHT22;38624;53.242;6.974;2023-07-13T10:21:26;23.10;99.90
52731;DHT22;38624;53.242;6.974;2023-07-13T10:24:06;23.30;99.90
52731;DHT22;38624;53.242;6.974;2023-07-13T10:26:49;23.50;99.90
52731;DHT22;38624;53.242;6.974;2023-07-13T10:29:16;23.70;99.90
52731;DHT22;38624;53.242;6.974;2023-07-13T10:31:45;23.60;99.90
52731;DHT22;38624;53.242;6.974;2023-07-13T10:34:14;23.50;99.90
52731;DHT22;38624;53.242;6.974;2023-07-13T10:36:45;23.20;99.90
52731;DHT22;38624;53.242;6.974;2023-07-13T10:39:25;22.80;99.90
52731;DHT22;38624;53.242;6.974;2023-07-13T10:41:59;22.20;99.90
52731;DHT22;38624;53.242;6.974;2023-07-13T10:44:28;21.60;99.90
52731;DHT22;38624;53.242;6.974;2023-07-13T10:46:58;21.50;99.90
52731;DHT22;38624;53.242;6.974;2023-07-13T10:49:25;21.60;99.90
52731;DHT22;38624;53.242;6.974;2023-07-13T10:51:52;21.80;99.90
52731;DHT22;38624;53.242;6.974;2023-07-13T10:57:16;22.00;99.90
52731;DHT22;38624;53.242;6.974;2023-07-13T10:59:39;21.90;99.90
52731;DHT22;38624;53.242;6.974;2023-07-13T11:02:21;21.70;99.90
52731;DHT22;38624;53.242;6.974;2023-07-13T11:04:48;21.60;99.90
52731;DHT22;38624;53.242;6.974;2023-07-13T11:10:52;21.80;99.90
52731;DHT22;38624;53.242;6.974;2023-07-13T11:13:38;21.60;99.90
52731;DHT22;38624;53.242;6.974;2023-07-13T11:18:51;22.30;99.90
52731;DHT22;38624;53.242;6.974;2023-07-13T11:21:19;22.20;99.90
52731;DHT22;38624;53.242;6.974;2023-07-13T11:23:52;21.90;99.90
52731;DHT22;38624;53.242;6.974;2023-07-13T11:26:50;21.80;99.90
52731;DHT22;38624;53.242;6.974;2023-07-13T11:31:59;21.60;99.90
52731;DHT22;38624;53.242;6.974;2023-07-13T11:34:35;22.00;99.90
52731;DHT22;38624;53.242;6.974;2023-07-13T11:37:01;22.30;99.90
52731;DHT22;38624;53.242;6.974;2023-07-13T11:39:31;22.60;99.90
52731;DHT22;38624;53.242;6.974;2023-07-13T11:42:00;22.90;99.90
52731;DHT22;38624;53.242;6.974;2023-07-13T11:44:29;23.10;99.90
52731;DHT22;38624;53.242;6.974;2023-07-13T11:46:57;23.50;99.90
52731;DHT22;38624;53.242;6.974;2023-07-13T11:49:30;23.20;99.90
52731;DHT22;38624;53.242;6.974;2023-07-13T11:51:57;23.30;99.90
52731;DHT22;38624;53.242;6.974;2023-07-13T11:54:32;23.30;99.90
52731;DHT22;38624;53.242;6.974;2023-07-13T11:57:10;23.20;99.90
52731;DHT22;38624;53.242;6.974;2023-07-13T11:59:42;23.00;99.90
52731;DHT22;38624;53.242;6.974;2023-07-13T12:02:16;22.70;99.90
52731;DHT22;38624;53.242;6.974;2023-07-13T12:04:43;22.90;99.90
52731;DHT22;38624;53.242;6.974;2023-07-13T12:07:17;22.40;99.90
52731;DHT22;38624;53.242;6.974;2023-07-13T12:09:43;22.60;99.90
52731;DHT22;38624;53.242;6.974;2023-07-13T12:12:16;22.50;96.80
52731;DHT22;38624;53.242;6.974;2023-07-13T12:14:43;22.80;97.20
52731;DHT22;38624;53.242;6.974;2023-07-13T12:17:20;23.10;96.00
52731;DHT22;38624;53.242;6.974;2023-07-13T12:19:48;23.20;92.80
52731;DHT22;38624;53.242;6.974;2023-07-13T12:22:16;23.10;93.20
52731;DHT22;38624;53.242;6.974;2023-07-13T12:24:43;22.50;92.00
52731;DHT22;38624;53.242;6.974;2023-07-13T12:27:24;22.40;93.20
52731;DHT22;38624;53.242;6.974;2023-07-13T12:30:20;21.90;93.60
52731;DHT22;38624;53.242;6.974;2023-07-13T12:33:10;22.20;93.80
52731;DHT22;38624;53.242;6.974;2023-07-13T12:35:48;22.50;94.20
52731;DHT22;38624;53.242;6.974;2023-07-13T12:38:16;22.30;93.70
52731;DHT22;38624;53.242;6.974;2023-07-13T12:40:42;22.40;93.30
52731;DHT22;38624;53.242;6.974;2023-07-13T12:43:12;21.90;91.70
52731;DHT22;38624;53.242;6.974;2023-07-13T12:45:39;22.00;92.50
52731;DHT22;38624;53.242;6.974;2023-07-13T12:48:20;22.30;92.70
52731;DHT22;38624;53.242;6.974;2023-07-13T12:50:47;22.60;91.70
52731;DHT22;38624;53.242;6.974;2023-07-13T12:53:22;22.90;91.20
52731;DHT22;38624;53.242;6.974;2023-07-13T12:55:56;23.30;92.80
52731;DHT22;38624;53.242;6.974;2023-07-13T12:58:26;22.80;85.90
52731;DHT22;38624;53.242;6.974;2023-07-13T13:00:55;22.50;87.70
52731;DHT22;38624;53.242;6.974;2023-07-13T13:03:33;22.50;88.00
52731;DHT22;38624;53.242;6.974;2023-07-13T13:06:00;22.40;87.10
52731;DHT22;38624;53.242;6.974;2023-07-13T13:08:29;22.20;91.40
52731;DHT22;38624;53.242;6.974;2023-07-13T13:10:55;21.80;93.30
52731;DHT22;38624;53.242;6.974;2023-07-13T13:13:21;21.50;95.70
52731;DHT22;38624;53.242;6.974;2023-07-13T13:15:47;21.50;98.90
52731;DHT22;38624;53.242;6.974;2023-07-13T13:18:31;21.60;98.90
52731;DHT22;38624;53.242;6.974;2023-07-13T13:20:56;21.50;94.10
52731;DHT22;38624;53.242;6.974;2023-07-13T13:23:22;21.40;97.70
52731;DHT22;38624;53.242;6.974;2023-07-13T13:25:49;21.50;94.00
52731;DHT22;38624;53.242;6.974;2023-07-13T13:28:18;21.30;91.90
52731;DHT22;38624;53.242;6.974;2023-07-13T13:30:45;21.20;91.80
52731;DHT22;38624;53.242;6.974;2023-07-13T13:33:12;21.20;90.80
52731;DHT22;38624;53.242;6.974;2023-07-13T13:35:40;21.30;91.10
52731;DHT22;38624;53.242;6.974;2023-07-13T13:38:14;21.30;91.30
52731;DHT22;38624;53.242;6.974;2023-07-13T13:40:44;21.40;92.30
52731;DHT22;38624;53.242;6.974;2023-07-13T13:43:36;21.70;93.30
52731;DHT22;38624;53.242;6.974;2023-07-13T13:46:21;21.80;94.10
52731;DHT22;38624;53.242;6.974;2023-07-13T13:48:50;22.00;93.00
52731;DHT22;38624;53.242;6.974;2023-07-13T13:51:19;22.00;91.30
52731;DHT22;38624;53.242;6.974;2023-07-13T13:53:45;22.00;92.80
52731;DHT22;38624;53.242;6.974;2023-07-13T13:56:15;22.00;92.90
52731;DHT22;38624;53.242;6.974;2023-07-13T13:58:41;22.10;92.10
52731;DHT22;38624;53.242;6.974;2023-07-13T14:01:19;22.10;91.60
52731;DHT22;38624;53.242;6.974;2023-07-13T14:03:46;22.00;92.30
52731;DHT22;38624;53.242;6.974;2023-07-13T14:06:15;21.80;90.10
52731;DHT22;38624;53.242;6.974;2023-07-13T14:08:41;21.90;90.00
52731;DHT22;38624;53.242;6.974;2023-07-13T14:11:12;21.80;91.90
52731;DHT22;38624;53.242;6.974;2023-07-13T14:13:52;21.60;94.10
52731;DHT22;38624;53.242;6.974;2023-07-13T14:16:20;21.40;93.70
52731;DHT22;38624;53.242;6.974;2023-07-13T14:18:47;21.40;92.30
52731;DHT22;38624;53.242;6.974;2023-07-13T14:21:14;21.40;93.40
52731;DHT22;38624;53.242;6.974;2023-07-13T14:23:40;21.40;94.50
52731;DHT22;38624;53.242;6.974;2023-07-13T14:26:18;21.40;95.80
52731;DHT22;38624;53.242;6.974;2023-07-13T14:28:50;21.50;97.10
52731;DHT22;38624;53.242;6.974;2023-07-13T14:31:17;21.90;96.80
52731;DHT22;38624;53.242;6.974;2023-07-13T14:33:44;21.80;96.40
52731;DHT22;38624;53.242;6.974;2023-07-13T14:36:35;21.90;98.20
52731;DHT22;38624;53.242;6.974;2023-07-13T14:39:21;21.90;97.00
52731;DHT22;38624;53.242;6.974;2023-07-13T14:41:53;21.80;96.20
52731;DHT22;38624;53.242;6.974;2023-07-13T14:44:26;21.50;99.10
52731;DHT22;38624;53.242;6.974;2023-07-13T14:46:52;21.30;99.90
52731;DHT22;38624;53.242;6.974;2023-07-13T14:51:56;21.60;99.00
52731;DHT22;38624;53.242;6.974;2023-07-13T14:54:23;21.80;99.90
52731;DHT22;38624;53.242;6.974;2023-07-13T14:56:49;21.80;99.10
52731;DHT22;38624;53.242;6.974;2023-07-13T14:59:16;21.70;98.50
52731;DHT22;38624;53.242;6.974;2023-07-13T15:01:45;21.60;98.10
52731;DHT22;38624;53.242;6.974;2023-07-13T15:04:12;21.40;98.10
52731;DHT22;38624;53.242;6.974;2023-07-13T15:06:57;21.50;97.90
52731;DHT22;38624;53.242;6.974;2023-07-13T15:09:25;22.50;95.20
52731;DHT22;38624;53.242;6.974;2023-07-13T15:11:58;23.50;93.00
52731;DHT22;38624;53.242;6.974;2023-07-13T15:14:24;23.90;90.90
52731;DHT22;38624;53.242;6.974;2023-07-13T15:16:52;24.40;90.50
52731;DHT22;38624;53.242;6.974;2023-07-13T15:19:19;24.50;89.00
52731;DHT22;38624;53.242;6.974;2023-07-13T15:21:47;24.80;87.70
52731;DHT22;38624;53.242;6.974;2023-07-13T15:24:13;25.80;86.60
52731;DHT22;38624;53.242;6.974;2023-07-13T15:26:39;25.40;82.70
52731;DHT22;38624;53.242;6.974;2023-07-13T15:29:05;26.20;81.30
52731;DHT22;38624;53.242;6.974;2023-07-13T15:31:32;25.70;79.60
52731;DHT22;38624;53.242;6.974;2023-07-13T15:34:00;24.50;79.60
52731;DHT22;38624;53.242;6.974;2023-07-13T15:36:26;23.50;83.90
52731;DHT22;38624;53.242;6.974;2023-07-13T15:38:53;22.60;88.60
52731;DHT22;38624;53.242;6.974;2023-07-13T15:43:52;21.60;93.70
52731;DHT22;38624;53.242;6.974;2023-07-13T15:46:20;21.40;97.30
52731;DHT22;38624;53.242;6.974;2023-07-13T15:48:50;21.50;98.50
52731;DHT22;38624;53.242;6.974;2023-07-13T15:51:30;21.70;98.10
52731;DHT22;38624;53.242;6.974;2023-07-13T15:54:02;22.20;97.10
52731;DHT22;38624;53.242;6.974;2023-07-13T15:56:35;22.50;96.00
52731;DHT22;38624;53.242;6.974;2023-07-13T15:59:01;22.50;95.60
52731;DHT22;38624;53.242;6.974;2023-07-13T16:01:29;22.40;95.30
52731;DHT22;38624;53.242;6.974;2023-07-13T16:03:55;22.30;95.00